createdAt,value
2019-05-17T00:02:08.127Z,16.30
2019-05-17T00:04:37.538Z,18.90
2019-05-17T00:07:07.086Z,16.77
2019-05-17T00:09:37.388Z,17.07
2019-05-17T00:12:07.564Z,14.50
2019-05-17T00:14:37.008Z,17.53
2019-05-17T00:17:07.132Z,19.17
2019-05-17T00:19:37.054Z,13.73
2019-05-17T00:22:07.351Z,18.00
2019-05-17T00:24:37.112Z,18.53
2019-05-17T00:27:06.897Z,18.10
2019-05-17T00:29:37.198Z,17.73
2019-05-17T00:32:06.714Z,18.43
2019-05-17T00:34:37.733Z,19.53
2019-05-17T00:37:07.376Z,16.60
2019-05-17T00:39:36.862Z,13.67
2019-05-17T00:42:07.036Z,21.20
2019-05-17T00:44:36.811Z,16.73
2019-05-17T00:47:06.686Z,16.80
2019-05-17T00:49:37.166Z,20.57
2019-05-17T00:52:07.211Z,19.63
2019-05-17T00:54:36.813Z,20.40
2019-05-17T00:57:07.504Z,18.40
2019-05-17T00:59:37.089Z,18.30
2019-05-17T01:02:07.110Z,16.17
2019-05-17T01:04:37.045Z,21.60
2019-05-17T01:07:07.091Z,19.93
2019-05-17T01:09:36.814Z,22.37
2019-05-17T01:12:07.083Z,23.60
2019-05-17T01:14:37.287Z,19.67
2019-05-17T01:17:07.305Z,18.93
2019-05-17T01:19:36.868Z,23.03
2019-05-17T01:22:07.545Z,17.07
2019-05-17T01:24:37.117Z,16.87
2019-05-17T01:27:06.731Z,19.60
2019-05-17T01:29:36.475Z,18.83
2019-05-17T01:32:06.854Z,19.43
2019-05-17T01:34:37.672Z,17.30
2019-05-17T01:37:07.918Z,19.20
2019-05-17T01:39:37.691Z,20.07
2019-05-17T01:42:07.211Z,17.60
2019-05-17T01:44:36.862Z,21.33
2019-05-17T01:47:07.405Z,16.83
2019-05-17T01:49:36.861Z,16.70
2019-05-17T01:52:07.477Z,18.33
2019-05-17T01:54:37.025Z,16.33
2019-05-17T01:57:07.309Z,19.47
2019-05-17T01:59:37.372Z,22.03
2019-05-17T02:02:10.392Z,18.13
2019-05-17T02:04:39.764Z,16.67
2019-05-17T02:07:09.138Z,18.50
2019-05-17T02:09:41.699Z,19.50
2019-05-17T02:12:09.752Z,18.83
2019-05-17T02:14:39.146Z,27.90
2019-05-17T02:17:08.509Z,14.90
2019-05-17T02:19:37.945Z,16.87
2019-05-17T02:22:07.585Z,20.87
2019-05-17T02:24:37.203Z,21.37
2019-05-17T02:27:06.845Z,18.30
2019-05-17T02:29:36.248Z,17.77
2019-05-17T02:32:05.873Z,21.20
2019-05-17T02:34:35.392Z,18.30
2019-05-17T02:37:04.777Z,17.33
2019-05-17T02:39:51.958Z,18.40
2019-05-17T02:42:05.485Z,22.13
2019-05-17T02:44:34.866Z,19.37
2019-05-17T02:47:04.305Z,13.53
2019-05-17T02:49:33.682Z,14.93
2019-05-17T02:52:03.525Z,17.30
2019-05-17T02:54:33.099Z,21.73
2019-05-17T02:57:05.684Z,14.67
2019-05-17T02:59:35.058Z,18.00
2019-05-17T03:02:04.562Z,17.43
2019-05-17T03:04:33.933Z,14.60
2019-05-17T03:07:04.028Z,21.53
2019-05-17T03:09:33.969Z,16.97
2019-05-17T03:12:03.973Z,20.60
2019-05-17T03:14:33.536Z,16.77
2019-05-17T03:17:03.563Z,22.37
2019-05-17T03:19:33.296Z,16.90
2019-05-17T03:22:07.181Z,18.03
2019-05-17T03:24:33.794Z,17.67
2019-05-17T03:27:03.393Z,20.57
2019-05-17T03:29:33.618Z,17.57
2019-05-17T03:32:08.470Z,19.60
2019-05-17T03:34:37.010Z,21.30
2019-05-17T03:37:07.587Z,19.80
2019-05-17T03:39:37.430Z,26.33
2019-05-17T03:42:06.811Z,24.73
2019-05-17T03:44:36.257Z,19.10
2019-05-17T03:47:06.106Z,24.00
2019-05-17T03:49:39.133Z,19.90
2019-05-17T03:52:06.627Z,19.70
2019-05-17T03:54:36.019Z,20.40
2019-05-17T03:57:05.436Z,19.83
2019-05-17T03:59:34.806Z,29.63
2019-05-17T04:02:04.302Z,21.83
2019-05-17T04:04:33.753Z,20.57
2019-05-17T04:07:03.640Z,22.80
2019-05-17T04:09:37.396Z,23.00
2019-05-17T04:12:04.351Z,21.73
2019-05-17T04:14:33.790Z,23.03
2019-05-17T04:17:03.405Z,20.30
2019-05-17T04:19:33.676Z,21.47
2019-05-17T04:22:04.009Z,25.90
2019-05-17T04:24:33.538Z,25.83
2019-05-17T04:27:03.785Z,21.83
2019-05-17T04:29:33.626Z,22.50
2019-05-17T04:32:03.990Z,21.93
2019-05-17T04:34:34.014Z,22.90
2019-05-17T04:37:04.551Z,24.17
2019-05-17T04:39:34.034Z,21.80
2019-05-17T04:42:04.183Z,25.60
2019-05-17T04:44:33.920Z,22.60
2019-05-17T04:47:04.800Z,21.50
2019-05-17T04:49:34.208Z,26.40
2019-05-17T04:52:03.909Z,23.60
2019-05-17T04:54:33.675Z,22.13
2019-05-17T04:57:03.246Z,28.33
2019-05-17T04:59:33.825Z,29.13
2019-05-17T05:02:03.897Z,26.37
2019-05-17T05:04:37.802Z,33.03
2019-05-17T05:07:04.591Z,27.27
2019-05-17T05:09:33.985Z,30.33
2019-05-17T05:12:06.141Z,29.33
2019-05-17T05:14:34.548Z,36.60
2019-05-17T05:17:04.049Z,25.93
2019-05-17T05:19:33.561Z,30.77
2019-05-17T05:22:04.483Z,28.73
2019-05-17T05:24:34.605Z,28.53
2019-05-17T05:27:06.775Z,28.60
2019-05-17T05:29:36.167Z,25.63
2019-05-17T05:32:05.712Z,26.30
2019-05-17T05:34:35.168Z,26.27
2019-05-17T05:37:04.548Z,39.43
2019-05-17T05:39:34.170Z,28.07
2019-05-17T05:42:07.926Z,29.83
2019-05-17T05:44:34.651Z,31.60
2019-05-17T05:47:06.786Z,27.37
2019-05-17T05:49:36.190Z,27.63
2019-05-17T05:52:05.567Z,29.40
2019-05-17T05:54:34.992Z,24.67
2019-05-17T05:57:04.369Z,23.07
2019-05-17T05:59:35.480Z,21.10
2019-05-17T06:02:04.997Z,22.53
2019-05-17T06:04:34.391Z,21.47
2019-05-17T06:07:03.790Z,21.43
2019-05-17T06:09:33.433Z,18.10
2019-05-17T06:12:03.496Z,22.37
2019-05-17T06:14:32.923Z,19.77
2019-05-17T06:17:03.195Z,21.20
2019-05-17T06:19:32.628Z,21.23
2019-05-17T06:22:02.802Z,20.10
2019-05-17T06:24:32.385Z,20.23
2019-05-17T06:27:02.108Z,19.90
2019-05-17T06:29:32.754Z,25.70
2019-05-17T06:32:02.726Z,20.53
2019-05-17T06:34:32.890Z,20.70
2019-05-17T06:37:03.457Z,16.33
2019-05-17T06:39:33.060Z,17.57
2019-05-17T06:42:02.841Z,20.10
2019-05-17T06:44:32.762Z,16.63
2019-05-17T06:47:03.658Z,18.47
2019-05-17T06:49:33.117Z,18.33
2019-05-17T06:52:02.657Z,15.00
2019-05-17T06:54:33.132Z,15.97
2019-05-17T06:57:04.012Z,16.70
2019-05-17T06:59:33.504Z,15.33
2019-05-17T07:02:02.910Z,15.43
2019-05-17T07:04:32.433Z,15.20
2019-05-17T07:07:20.695Z,15.53
2019-05-17T07:09:50.250Z,10.87
2019-05-17T07:12:20.192Z,12.63
2019-05-17T07:14:50.739Z,13.27
2019-05-17T07:17:20.254Z,13.27
2019-05-17T07:19:50.730Z,14.93
2019-05-17T07:22:21.190Z,20.00
2019-05-17T07:24:50.959Z,13.93
2019-05-17T07:27:20.371Z,15.23
2019-05-17T07:29:49.849Z,12.60
2019-05-17T07:32:19.491Z,11.10
2019-05-17T07:34:50.790Z,12.80
2019-05-17T07:37:20.113Z,13.80
2019-05-17T07:40:00.916Z,10.60
2019-05-17T07:42:20.694Z,11.10
2019-05-17T07:44:50.235Z,10.80
2019-05-17T07:47:20.310Z,9.97
2019-05-17T07:49:49.874Z,8.50
2019-05-17T07:52:20.592Z,11.40
2019-05-17T07:54:50.887Z,8.70
2019-05-17T07:57:20.786Z,9.93
2019-05-17T07:59:50.796Z,10.47
2019-05-17T08:02:20.466Z,12.83
2019-05-17T08:04:50.245Z,8.30
2019-05-17T08:07:19.817Z,8.87
2019-05-17T08:09:50.649Z,8.43
2019-05-17T08:12:20.127Z,9.10
2019-05-17T08:14:50.244Z,8.80
2019-05-17T08:17:20.073Z,7.90
2019-05-17T08:19:49.907Z,6.77
2019-05-17T08:22:20.237Z,5.80
2019-05-17T08:24:49.741Z,9.70
2019-05-17T08:27:20.078Z,9.57
2019-05-17T08:29:50.904Z,8.30
2019-05-17T08:32:20.911Z,5.57
2019-05-17T08:34:51.904Z,4.47
2019-05-17T08:37:21.445Z,4.93
2019-05-17T08:39:50.795Z,4.47
2019-05-17T08:42:20.538Z,9.60
2019-05-17T08:44:50.009Z,6.53
2019-05-17T08:47:20.957Z,9.40
2019-05-17T08:49:50.542Z,7.60
2019-05-17T08:52:20.154Z,4.77
2019-05-17T08:54:50.047Z,5.30
2019-05-17T08:57:20.447Z,4.37
2019-05-17T08:59:49.993Z,5.00
2019-05-17T09:02:19.860Z,5.17
2019-05-17T09:04:49.878Z,6.47
2019-05-17T09:07:20.372Z,8.33
2019-05-17T09:09:50.364Z,5.10
2019-05-17T09:12:20.616Z,5.53
2019-05-17T09:14:50.286Z,5.40
2019-05-17T09:17:19.648Z,4.63
2019-05-17T09:19:50.962Z,4.03
2019-05-17T09:22:20.142Z,5.70
2019-05-17T09:24:50.005Z,5.10
2019-05-17T09:27:19.905Z,4.83
2019-05-17T09:29:49.813Z,5.10
2019-05-17T09:32:20.112Z,6.00
2019-05-17T09:34:50.048Z,4.73
2019-05-17T09:37:22.443Z,12.43
2019-05-17T09:39:50.902Z,5.87
2019-05-17T09:42:20.931Z,5.57
2019-05-17T09:44:50.576Z,4.23
2019-05-17T09:47:20.650Z,6.30
2019-05-17T09:49:50.309Z,6.90
2019-05-17T09:52:20.226Z,3.50
2019-05-17T09:54:50.468Z,7.43
2019-05-17T09:57:20.498Z,4.60
2019-05-17T09:59:49.986Z,3.57
2019-05-17T10:02:20.358Z,5.23
2019-05-17T10:04:50.395Z,4.40
2019-05-17T10:07:20.706Z,5.17
2019-05-17T10:09:50.898Z,6.57
2019-05-17T10:12:20.453Z,5.23
2019-05-17T10:14:49.965Z,6.57
2019-05-17T10:17:21.166Z,3.90
2019-05-17T10:19:50.999Z,3.07
2019-05-17T10:22:20.741Z,3.70
2019-05-17T10:24:50.151Z,6.33
2019-05-17T10:27:20.111Z,3.57
2019-05-17T10:29:50.150Z,5.23
2019-05-17T10:32:20.573Z,3.20
2019-05-17T10:34:50.203Z,4.23
2019-05-17T10:37:20.304Z,7.30
2019-05-17T10:39:50.359Z,4.37
2019-05-17T10:42:20.910Z,3.27
2019-05-17T10:44:51.329Z,3.80
2019-05-17T10:47:21.620Z,4.30
2019-05-17T10:49:51.188Z,4.17
2019-05-17T10:52:20.817Z,3.20
2019-05-17T10:54:50.388Z,3.73
2019-05-17T10:57:19.826Z,6.03
2019-05-17T10:59:49.942Z,3.23
2019-05-17T11:02:19.817Z,4.27
2019-05-17T11:04:50.523Z,3.07
2019-05-17T11:07:20.273Z,3.20
2019-05-17T11:09:50.788Z,9.10
2019-05-17T11:12:20.875Z,3.90
2019-05-17T11:14:56.096Z,5.13
2019-05-17T11:17:21.490Z,2.90
2019-05-17T11:19:50.870Z,7.33
2019-05-17T11:22:20.408Z,5.33
2019-05-17T11:24:49.815Z,2.53
2019-05-17T11:27:19.165Z,4.07
2019-05-17T11:29:48.549Z,2.40
2019-05-17T11:32:18.090Z,16.97
2019-05-17T11:34:47.617Z,3.10
2019-05-17T11:37:17.019Z,7.13
2019-05-17T11:39:46.534Z,7.30
2019-05-17T11:42:15.989Z,3.07
2019-05-17T11:44:45.347Z,4.07
2019-05-17T11:47:14.739Z,7.97
2019-05-17T11:49:44.134Z,4.00
2019-05-17T11:52:13.705Z,6.03
2019-05-17T11:54:43.161Z,2.90
2019-05-17T11:57:12.602Z,2.53
2019-05-17T11:59:41.954Z,7.40
2019-05-17T12:02:11.554Z,2.73
2019-05-17T12:04:40.959Z,4.27
2019-05-17T12:07:10.656Z,2.63
2019-05-17T12:09:40.177Z,2.37
2019-05-17T12:12:09.726Z,2.70
2019-05-17T12:14:39.113Z,6.53
2019-05-17T12:17:08.611Z,7.50
2019-05-17T12:19:38.444Z,1.90
2019-05-17T12:22:07.805Z,2.60
2019-05-17T12:24:37.206Z,2.43
2019-05-17T12:27:06.582Z,3.23
2019-05-17T12:29:35.982Z,1.80
2019-05-17T12:32:06.027Z,6.00
2019-05-17T12:34:35.598Z,1.97
2019-05-17T12:37:07.340Z,3.57
2019-05-17T12:39:36.726Z,2.17
2019-05-17T12:42:06.217Z,1.93
2019-05-17T12:44:37.283Z,3.03
2019-05-17T12:47:06.921Z,2.83
2019-05-17T12:49:36.283Z,2.00
2019-05-17T12:52:05.785Z,2.27
2019-05-17T12:54:35.168Z,2.17
2019-05-17T12:57:05.202Z,3.00
2019-05-17T12:59:34.601Z,1.63
2019-05-17T13:02:04.045Z,2.30
2019-05-17T13:04:33.410Z,4.43
2019-05-17T13:07:02.803Z,2.23
2019-05-17T13:09:32.176Z,2.30
2019-05-17T13:12:01.569Z,1.67
2019-05-17T13:14:32.506Z,2.20
2019-05-17T13:17:01.906Z,1.43
2019-05-17T13:19:31.280Z,1.40
2019-05-17T13:22:00.689Z,1.60
2019-05-17T13:24:30.048Z,1.10
2019-05-17T13:26:59.549Z,1.40
2019-05-17T13:29:28.945Z,1.47
2019-05-17T13:31:58.419Z,1.60
2019-05-17T13:34:27.825Z,2.40
2019-05-17T13:36:57.262Z,3.53
2019-05-17T13:39:26.680Z,22.63
2019-05-17T13:41:56.046Z,2.00
2019-05-17T13:44:25.546Z,1.53
2019-05-17T13:46:54.940Z,4.80
2019-05-17T13:49:24.333Z,1.77
2019-05-17T13:51:53.702Z,1.70
2019-05-17T13:54:23.103Z,2.30
2019-05-17T13:56:52.469Z,2.43
2019-05-17T13:59:21.869Z,2.07
2019-05-17T14:01:51.240Z,2.10
2019-05-17T14:04:20.607Z,1.97
2019-05-17T14:06:50.033Z,1.60
2019-05-17T14:09:19.393Z,6.20
2019-05-17T14:11:48.831Z,2.03
2019-05-17T14:14:18.253Z,2.00
2019-05-17T14:16:47.630Z,3.83
2019-05-17T14:19:16.990Z,1.63
2019-05-17T14:21:46.572Z,2.20
2019-05-17T14:24:15.945Z,2.13
2019-05-17T14:26:45.340Z,4.50
2019-05-17T14:29:14.822Z,2.30
2019-05-17T14:31:44.282Z,1.93
2019-05-17T14:34:13.742Z,3.27
2019-05-17T14:36:43.181Z,5.87
2019-05-17T14:39:12.580Z,3.10
2019-05-17T14:41:42.020Z,3.30
2019-05-17T14:44:11.427Z,3.60
2019-05-17T14:46:40.820Z,1.23
2019-05-17T14:49:10.214Z,2.30
2019-05-17T14:51:39.571Z,2.10
2019-05-17T14:54:08.964Z,6.10
2019-05-17T14:56:38.325Z,1.80
2019-05-17T14:59:07.728Z,2.20
2019-05-17T15:01:37.197Z,2.20
2019-05-17T15:04:06.598Z,3.30
2019-05-17T15:06:35.972Z,3.10
2019-05-17T15:09:06.685Z,2.10
2019-05-17T15:11:36.080Z,1.80
2019-05-17T15:14:05.962Z,6.27
2019-05-17T15:16:35.408Z,2.30
2019-05-17T15:19:04.873Z,5.73
2019-05-17T15:21:34.255Z,3.47
2019-05-17T15:24:03.637Z,2.87
2019-05-17T15:26:35.668Z,2.47
2019-05-17T15:29:04.381Z,2.70
2019-05-17T15:31:33.827Z,4.03
2019-05-17T15:34:03.218Z,3.60
2019-05-17T15:36:32.660Z,2.57
2019-05-17T15:39:02.193Z,3.70
2019-05-17T15:41:31.590Z,2.80
2019-05-17T15:44:01.072Z,3.03
2019-05-17T15:46:30.474Z,14.10
2019-05-17T15:48:59.845Z,4.07
2019-05-17T15:51:29.214Z,9.37
2019-05-17T15:53:58.707Z,2.77
2019-05-17T15:56:28.095Z,3.80
2019-05-17T15:58:57.486Z,2.83
2019-05-17T16:01:26.868Z,5.43
2019-05-17T16:03:56.261Z,2.60
2019-05-17T16:06:25.632Z,2.67
2019-05-17T16:08:55.033Z,2.57
2019-05-17T16:11:24.500Z,2.50
2019-05-17T16:13:53.999Z,2.30
2019-05-17T16:16:23.462Z,2.73
2019-05-17T16:18:52.882Z,3.50
2019-05-17T16:21:22.359Z,2.30
2019-05-17T16:23:53.408Z,4.60
2019-05-17T16:26:22.864Z,2.83
2019-05-17T16:28:52.227Z,3.20
2019-05-17T16:31:21.615Z,2.47
2019-05-17T16:33:51.149Z,3.07
2019-05-17T16:36:20.638Z,3.53
2019-05-17T16:38:50.061Z,4.47
2019-05-17T16:41:19.509Z,2.63
2019-05-17T16:43:48.883Z,5.23
2019-05-17T16:46:18.270Z,3.53
2019-05-17T16:48:47.664Z,6.03
2019-05-17T16:51:17.101Z,4.17
2019-05-17T16:53:46.547Z,3.77
2019-05-17T16:56:15.933Z,3.70
2019-05-17T16:58:45.317Z,4.47
2019-05-17T17:01:14.703Z,4.07
2019-05-17T17:03:44.885Z,3.80
2019-05-17T17:06:14.360Z,2.63
2019-05-17T17:08:44.309Z,3.70
2019-05-17T17:11:13.794Z,2.50
2019-05-17T17:13:43.208Z,6.43
2019-05-17T17:16:12.568Z,3.90
2019-05-17T17:18:41.965Z,6.67
2019-05-17T17:21:11.601Z,4.03
2019-05-17T17:23:41.111Z,3.00
2019-05-17T17:26:10.483Z,3.80
2019-05-17T17:28:39.971Z,5.43
2019-05-17T17:31:13.798Z,4.03
2019-05-17T17:33:43.158Z,3.73
2019-05-17T17:36:12.623Z,2.73
2019-05-17T17:38:42.000Z,2.57
2019-05-17T17:41:11.389Z,2.40
2019-05-17T17:43:40.760Z,2.97
2019-05-17T17:46:10.155Z,2.90
2019-05-17T17:48:39.542Z,6.10
2019-05-17T17:51:09.124Z,2.97
2019-05-17T17:53:38.507Z,7.13
2019-05-17T17:56:07.911Z,2.80
2019-05-17T17:58:37.380Z,5.00
2019-05-17T18:01:06.872Z,2.70
2019-05-17T18:03:36.234Z,2.53
2019-05-17T18:06:05.765Z,2.53
2019-05-17T18:08:35.151Z,3.00
2019-05-17T18:11:04.542Z,4.70
2019-05-17T18:13:33.951Z,6.10
2019-05-17T18:16:03.330Z,2.40
2019-05-17T18:18:32.719Z,6.50
2019-05-17T18:21:02.218Z,2.53
2019-05-17T18:23:31.667Z,3.83
2019-05-17T18:26:01.065Z,5.73
2019-05-17T18:28:30.516Z,3.23
2019-05-17T18:30:59.977Z,2.83
2019-05-17T18:33:29.486Z,3.10
2019-05-17T18:35:58.857Z,3.40
2019-05-17T18:38:30.850Z,3.47
2019-05-17T18:41:00.263Z,2.90
2019-05-17T18:43:29.646Z,2.50
2019-05-17T18:45:59.064Z,2.50
2019-05-17T18:48:28.434Z,2.13
2019-05-17T18:50:57.833Z,2.30
2019-05-17T18:53:27.564Z,3.83
2019-05-17T18:55:56.993Z,3.27
2019-05-17T18:58:26.360Z,4.80
2019-05-17T19:00:55.873Z,1.97
2019-05-17T19:03:25.259Z,3.37
2019-05-17T19:05:54.757Z,3.00
2019-05-17T19:08:24.224Z,2.40
2019-05-17T19:10:53.744Z,2.20
2019-05-17T19:13:23.115Z,2.97
2019-05-17T19:15:52.479Z,2.70
2019-05-17T19:18:21.866Z,2.70
2019-05-17T19:20:51.279Z,3.60
2019-05-17T19:23:20.639Z,3.50
2019-05-17T19:25:50.250Z,4.33
2019-05-17T19:28:19.901Z,3.63
2019-05-17T19:30:50.289Z,11.97
2019-05-17T19:33:19.796Z,3.40
2019-05-17T19:35:49.177Z,2.90
2019-05-17T19:38:18.566Z,2.40
2019-05-17T19:40:47.975Z,3.07
2019-05-17T19:43:17.387Z,3.73
2019-05-17T19:45:46.756Z,3.97
2019-05-17T19:48:19.674Z,3.33
2019-05-17T19:50:47.949Z,3.47
2019-05-17T19:53:17.340Z,3.77
2019-05-17T19:55:46.854Z,3.40
2019-05-17T19:58:16.250Z,3.77
2019-05-17T20:00:45.902Z,3.93
2019-05-17T20:03:15.282Z,7.20
2019-05-17T20:05:44.688Z,4.03
2019-05-17T20:08:14.111Z,8.20
2019-05-17T20:10:43.523Z,3.27
2019-05-17T20:13:13.803Z,4.43
2019-05-17T20:15:43.223Z,4.73
2019-05-17T20:18:15.140Z,4.73
2019-05-17T20:20:44.806Z,4.23
2019-05-17T20:23:14.235Z,2.50
2019-05-17T20:25:44.412Z,3.30
2019-05-17T20:28:16.412Z,3.93
2019-05-17T20:30:45.797Z,2.60
2019-05-17T20:33:15.232Z,5.40
2019-05-17T20:35:44.607Z,6.70
2019-05-17T20:38:14.027Z,3.07
2019-05-17T20:40:43.542Z,2.63
2019-05-17T20:43:13.099Z,3.13
2019-05-17T20:45:42.682Z,3.50
2019-05-17T20:48:12.073Z,2.63
2019-05-17T20:50:41.586Z,4.90
2019-05-17T20:53:18.734Z,2.60
2019-05-17T20:55:42.682Z,3.30
2019-05-17T20:58:12.169Z,2.90
2019-05-17T21:00:41.757Z,3.27
2019-05-17T21:03:13.829Z,3.37
2019-05-17T21:05:42.394Z,3.33
2019-05-17T21:08:11.780Z,4.00
2019-05-17T21:10:41.200Z,3.73
2019-05-17T21:13:10.589Z,4.33
2019-05-17T21:15:47.358Z,4.00
2019-05-17T21:18:11.083Z,5.30
2019-05-17T21:20:40.517Z,4.50
2019-05-17T21:23:09.922Z,3.73
2019-05-17T21:25:39.320Z,5.60
2019-05-17T21:28:08.720Z,6.20
2019-05-17T21:30:38.251Z,5.40
2019-05-17T21:33:07.624Z,3.07
2019-05-17T21:35:37.005Z,3.23
2019-05-17T21:38:06.414Z,6.97
2019-05-17T21:40:35.797Z,4.70
2019-05-17T21:43:05.240Z,5.90
2019-05-17T21:45:34.670Z,4.33
2019-05-17T21:48:04.070Z,6.17
2019-05-17T21:50:33.453Z,3.90
2019-05-17T21:53:02.867Z,3.50
2019-05-17T21:55:32.332Z,7.73
2019-05-17T21:58:01.865Z,3.90
2019-05-17T22:01:06.490Z,7.40
2019-05-17T22:03:36.036Z,3.93
2019-05-17T22:06:05.426Z,7.57
2019-05-17T22:08:34.907Z,4.90
2019-05-17T22:11:04.312Z,9.33
2019-05-17T22:13:33.693Z,4.30
2019-05-17T22:16:18.237Z,6.77
2019-05-17T22:18:34.250Z,4.50
2019-05-17T22:21:03.678Z,3.80
2019-05-17T22:23:33.097Z,3.97
2019-05-17T22:26:02.488Z,3.80
2019-05-17T22:28:31.879Z,4.60
2019-05-17T22:31:01.270Z,5.27
2019-05-17T22:33:30.852Z,2.90
2019-05-17T22:36:00.254Z,6.97
2019-05-17T22:38:29.687Z,6.27
2019-05-17T22:40:59.108Z,6.27
2019-05-17T22:43:28.592Z,10.13
2019-05-17T22:45:58.006Z,6.63
2019-05-17T22:48:27.385Z,8.97
2019-05-17T22:50:56.766Z,6.10
2019-05-17T22:53:26.232Z,7.73
2019-05-17T22:55:55.620Z,12.70
2019-05-17T22:58:25.029Z,6.87
2019-05-17T23:00:54.420Z,4.00
2019-05-17T23:03:23.846Z,11.43
2019-05-17T23:05:53.236Z,26.00
2019-05-17T23:08:22.623Z,10.43
2019-05-17T23:10:52.030Z,31.50
2019-05-17T23:13:21.405Z,60.80
2019-05-17T23:16:04.745Z,14.50
2019-05-17T23:18:34.843Z,27.90
2019-05-17T23:21:04.602Z,49.30
2019-05-17T23:23:33.989Z,33.77
2019-05-17T23:26:03.403Z,50.17
2019-05-17T23:28:32.812Z,39.17
2019-05-17T23:31:02.220Z,33.63
2019-05-17T23:33:31.655Z,73.27
2019-05-17T23:36:01.039Z,163.60
2019-05-17T23:38:30.442Z,57.03
2019-05-17T23:40:59.840Z,53.93
2019-05-17T23:43:29.367Z,60.93
2019-05-17T23:45:58.748Z,41.53
2019-05-17T23:48:28.153Z,27.43
2019-05-17T23:50:58.042Z,32.20
2019-05-17T23:53:27.449Z,34.10
2019-05-17T23:55:56.834Z,70.23
2019-05-17T23:58:26.269Z,128.40
